Time;durP1;ratioP1;P1;durP2;ratioP2;P2;SDS_P1;SDS_P2;PMS_P1;PMS_P2;Temp;Humidity;BMP_temperature;BMP_pressure;BME280_temperature;BME280_humidity;BME280_pressure;Samples;Min_cycle;Max_cycle;Signal;HPM_P1;HPM_P2
2021/05/11 00:01:35;;;;;;;6.70;3.70;;;14.00;82.40;;;;;;5070407;28;20035;-85
2021/05/11 00:04:00;;;;;;;6.15;2.70;;;14.00;82.90;;;;;;5067832;28;20031;-85
2021/05/11 00:06:26;;;;;;;4.38;2.63;;;14.00;83.30;;;;;;5062218;28;20052;-84
2021/05/11 00:08:52;;;;;;;6.85;3.10;;;13.90;83.60;;;;;;5059314;28;20209;-84
2021/05/11 00:11:18;;;;;;;6.30;3.38;;;13.80;83.70;;;;;;5052195;28;20078;-85
2021/05/11 00:13:43;;;;;;;6.50;2.85;;;13.80;83.70;;;;;;5065940;28;20028;-85
2021/05/11 00:16:09;;;;;;;6.80;4.15;;;13.70;84.10;;;;;;5053469;28;20045;-85
2021/05/11 00:18:35;;;;;;;5.80;3.03;;;13.70;84.30;;;;;;5053677;28;20053;-84
2021/05/11 00:21:01;;;;;;;6.72;3.20;;;13.60;84.50;;;;;;5062989;28;20044;-85
2021/05/11 00:23:27;;;;;;;6.00;3.13;;;13.60;84.20;;;;;;5065791;28;20476;-86
2021/05/11 00:25:54;;;;;;;6.45;3.22;;;13.60;84.20;;;;;;5059778;28;20041;-85
2021/05/11 00:28:20;;;;;;;4.03;3.20;;;13.60;84.30;;;;;;5054237;28;20060;-85
2021/05/11 00:30:46;;;;;;;5.82;2.95;;;13.70;84.10;;;;;;5058719;28;20044;-85
2021/05/11 00:33:11;;;;;;;6.18;3.63;;;13.70;83.90;;;;;;5066958;28;20032;-84
2021/05/11 00:35:37;;;;;;;6.30;3.30;;;13.70;84.00;;;;;;5065442;28;20056;-84
2021/05/11 00:38:03;;;;;;;4.47;3.35;;;13.70;83.30;;;;;;5069942;28;20028;-83
2021/05/11 00:40:28;;;;;;;4.95;3.20;;;13.70;83.20;;;;;;5068831;28;20034;-84
2021/05/11 00:42:54;;;;;;;4.72;2.58;;;13.80;83.20;;;;;;5062170;28;20033;-83
2021/05/11 00:45:20;;;;;;;4.85;3.38;;;13.80;83.20;;;;;;5057683;28;20024;-84
2021/05/11 00:47:45;;;;;;;6.93;3.22;;;13.70;83.20;;;;;;5064280;28;20385;-83
2021/05/11 00:50:12;;;;;;;4.72;2.92;;;13.80;83.20;;;;;;5049044;28;20790;-85
2021/05/11 00:52:38;;;;;;;9.75;3.60;;;13.70;83.10;;;;;;5066331;28;20059;-85
2021/05/11 00:55:04;;;;;;;7.10;3.60;;;13.70;83.30;;;;;;5065927;28;20047;-84
2021/05/11 00:57:32;;;;;;;8.35;3.60;;;13.80;83.50;;;;;;5064552;28;20020;-84
2021/05/11 00:59:59;;;;;;;6.15;3.55;;;13.70;83.20;;;;;;5057381;28;20391;-84
2021/05/11 01:02:25;;;;;;;7.80;3.00;;;13.70;83.20;;;;;;5067501;28;20404;-84
2021/05/11 01:04:51;;;;;;;5.47;3.13;;;13.80;83.30;;;;;;5070946;28;20025;-85
2021/05/11 01:07:17;;;;;;;6.57;3.50;;;13.80;83.10;;;;;;5056127;28;20044;-85
2021/05/11 01:09:43;;;;;;;5.55;3.25;;;13.80;83.10;;;;;;5064758;28;20024;-84
2021/05/11 01:12:09;;;;;;;5.13;3.65;;;13.70;83.20;;;;;;5067289;28;20082;-85
2021/05/11 01:14:34;;;;;;;7.65;3.17;;;13.70;83.20;;;;;;5067855;28;20021;-85
2021/05/11 01:17:01;;;;;;;12.20;4.68;;;13.70;83.20;;;;;;5067881;28;20024;-84
2021/05/11 01:19:53;;;;;;;6.47;3.40;;;13.70;83.20;;;;;;5069198;28;20020;-84
2021/05/11 02:23:04;;;;;;;7.78;5.30;;;13.40;83.90;;;;;;5072305;28;20051;-85
2021/05/11 02:25:30;;;;;;;6.10;3.50;;;13.40;83.50;;;;;;5071151;28;20089;-84
2021/05/11 02:27:55;;;;;;;6.63;3.00;;;13.40;83.60;;;;;;5069874;28;20021;-84
2021/05/11 02:30:21;;;;;;;7.70;3.53;;;13.30;83.40;;;;;;5069656;28;20075;-84
2021/05/11 02:32:47;;;;;;;6.00;2.88;;;13.40;83.40;;;;;;5069797;28;20024;-84
2021/05/11 02:35:14;;;;;;;5.07;3.35;;;13.30;83.30;;;;;;5070766;28;20741;-85
2021/05/11 02:37:41;;;;;;;5.38;3.30;;;13.30;83.50;;;;;;5071972;28;20017;-84
2021/05/11 02:40:09;;;;;;;5.88;3.25;;;13.30;83.30;;;;;;5068272;28;20040;-84
2021/05/11 02:42:36;;;;;;;4.70;2.83;;;13.30;83.30;;;;;;5069822;28;20027;-84
2021/05/11 02:45:03;;;;;;;6.82;3.58;;;13.30;83.40;;;;;;5068231;28;20311;-84
2021/05/11 02:47:29;;;;;;;5.53;3.40;;;13.30;83.40;;;;;;5069108;28;20025;-85
2021/05/11 02:49:55;;;;;;;8.07;3.15;;;13.30;83.60;;;;;;5069622;28;20029;-84
2021/05/11 02:52:20;;;;;;;7.40;3.17;;;13.30;83.60;;;;;;5070767;28;20442;-84
2021/05/11 02:54:46;;;;;;;8.07;3.42;;;13.20;83.50;;;;;;5067839;28;20049;-85
2021/05/11 02:57:12;;;;;;;8.52;3.25;;;13.20;83.60;;;;;;5067465;28;20395;-85
2021/05/11 02:59:39;;;;;;;8.63;3.13;;;13.20;83.70;;;;;;5067646;28;20035;-84
2021/05/11 03:02:05;;;;;;;7.25;3.13;;;13.20;83.50;;;;;;5070098;28;20020;-84
2021/05/11 03:04:31;;;;;;;7.38;3.25;;;13.30;83.40;;;;;;5069086;28;20024;-83
2021/05/11 03:06:57;;;;;;;9.05;3.35;;;13.20;83.40;;;;;;5067011;28;20082;-85
2021/05/11 03:09:27;;;;;;;4.60;3.28;;;13.30;83.50;;;;;;5061748;28;20510;-84
2021/05/11 03:11:54;;;;;;;8.80;3.40;;;13.30;83.50;;;;;;5068555;28;20100;-85
2021/05/11 03:14:20;;;;;;;7.07;3.45;;;13.20;83.50;;;;;;5059029;28;20495;-84
2021/05/11 03:16:46;;;;;;;10.70;3.40;;;13.30;83.40;;;;;;5069681;28;20032;-83
2021/05/11 03:19:12;;;;;;;4.60;2.55;;;13.30;83.40;;;;;;5067096;28;20065;-85
2021/05/11 03:21:38;;;;;;;5.22;3.22;;;13.30;83.30;;;;;;5064382;28;20048;-84
2021/05/11 03:24:04;;;;;;;6.55;3.42;;;13.30;83.40;;;;;;5068251;28;20032;-84
2021/05/11 03:26:30;;;;;;;5.07;3.28;;;13.30;83.30;;;;;;5066454;28;20021;-84
2021/05/11 03:28:56;;;;;;;11.13;3.00;;;13.30;83.50;;;;;;5069334;28;20035;-84
2021/05/11 03:31:21;;;;;;;6.03;3.28;;;13.30;83.20;;;;;;5069527;28;20025;-84
2021/05/11 03:33:47;;;;;;;6.13;3.15;;;13.30;83.20;;;;;;5069317;28;20492;-84
2021/05/11 03:36:13;;;;;;;13.32;4.45;;;13.40;82.90;;;;;;5067909;28;20834;-85
2021/05/11 03:38:39;;;;;;;6.20;3.28;;;13.40;83.00;;;;;;5067339;28;20025;-84
2021/05/11 03:41:05;;;;;;;8.25;3.15;;;13.40;83.00;;;;;;5069159;28;20036;-84
2021/05/11 03:43:36;;;;;;;7.38;3.47;;;13.40;82.90;;;;;;5068771;28;20807;-84
2021/05/11 03:46:07;;;;;;;6.43;2.88;;;13.40;83.10;;;;;;5065185;28;20108;-84
2021/05/11 03:48:33;;;;;;;7.47;3.20;;;13.50;82.50;;;;;;5068478;28;20024;-84
2021/05/11 03:51:05;;;;;;;5.32;3.50;;;13.80;81.70;;;;;;5066385;28;20031;-85
2021/05/11 03:53:32;;;;;;;5.07;3.00;;;14.30;80.20;;;;;;5067585;28;20049;-85
2021/05/11 03:55:58;;;;;;;6.07;2.70;;;14.90;78.40;;;;;;5070702;28;20495;-86
2021/05/11 03:58:24;;;;;;;5.47;3.13;;;15.30;76.00;;;;;;5068598;28;20392;-83
2021/05/11 04:00:50;;;;;;;6.68;2.83;;;15.40;75.30;;;;;;5068447;28;20554;-84
2021/05/11 04:03:15;;;;;;;5.80;2.78;;;15.60;75.10;;;;;;5068090;28;20108;-84
2021/05/11 04:05:41;;;;;;;5.07;2.95;;;15.70;74.50;;;;;;5061116;28;20353;-84
2021/05/11 04:08:07;;;;;;;5.88;3.20;;;16.00;73.80;;;;;;5069331;28;20017;-85
2021/05/11 04:10:41;;;;;;;6.78;3.03;;;16.40;72.10;;;;;;5069798;28;20028;-85
2021/05/11 04:18:17;;;;;;;7.00;3.25;;;17.50;68.70;;;;;;5064624;28;20439;-86
2021/05/11 04:20:42;;;;;;;3.95;2.38;;;17.80;68.00;;;;;;5053170;28;20040;-85
2021/05/11 04:23:08;;;;;;;3.55;2.50;;;18.10;66.70;;;;;;5069525;28;20063;-85
2021/05/11 04:25:33;;;;;;;3.35;2.33;;;18.30;65.90;;;;;;5069568;28;20074;-84
2021/05/11 04:27:59;;;;;;;7.63;3.17;;;18.50;65.50;;;;;;5067545;28;20082;-84
2021/05/11 04:30:25;;;;;;;8.27;2.85;;;18.40;65.10;;;;;;5067734;28;20039;-85
2021/05/11 04:32:50;;;;;;;6.13;2.60;;;18.20;65.90;;;;;;5069666;28;20024;-85
2021/05/11 04:35:16;;;;;;;9.98;3.30;;;17.90;66.40;;;;;;5055703;28;20032;-85
2021/05/11 04:37:43;;;;;;;6.85;2.58;;;17.50;67.90;;;;;;5067576;28;20020;-85
2021/05/11 04:40:09;;;;;;;4.63;2.90;;;17.20;69.40;;;;;;5067778;28;20032;-84
2021/05/11 04:42:35;;;;;;;6.13;2.83;;;16.90;70.80;;;;;;5067484;28;20021;-85
2021/05/11 04:45:01;;;;;;;8.05;2.80;;;16.70;71.40;;;;;;5067885;28;20033;-84
2021/05/11 04:47:45;;;;;;;5.65;2.60;;;16.50;71.70;;;;;;5062142;28;20063;-85
2021/05/11 04:50:13;;;;;;;6.13;2.70;;;16.40;72.40;;;;;;5064867;28;20075;-85
2021/05/11 04:52:40;;;;;;;6.53;2.67;;;16.30;72.30;;;;;;5063122;28;20238;-84
2021/05/11 04:55:06;;;;;;;6.22;3.00;;;16.20;72.40;;;;;;5066667;28;20036;-85
2021/05/11 04:57:31;;;;;;;5.68;2.47;;;16.30;73.10;;;;;;5067335;28;20013;-85
2021/05/11 05:00:01;;;;;;;8.48;2.72;;;16.20;72.90;;;;;;5067511;28;20103;-85
2021/05/11 05:02:26;;;;;;;5.53;3.15;;;16.30;73.30;;;;;;5066012;28;20059;-84
2021/05/11 05:04:52;;;;;;;3.95;2.70;;;16.40;72.90;;;;;;5068536;28;20479;-84
2021/05/11 05:07:18;;;;;;;8.80;2.78;;;16.40;73.00;;;;;;5064707;28;20492;-85
2021/05/11 05:09:44;;;;;;;6.72;2.30;;;16.50;73.20;;;;;;5061069;28;20023;-84
2021/05/11 05:12:09;;;;;;;7.13;2.63;;;16.60;73.30;;;;;;5067366;28;20111;-84
2021/05/11 05:14:35;;;;;;;8.90;3.10;;;16.70;72.20;;;;;;5065907;28;20147;-85
2021/05/11 05:17:01;;;;;;;7.78;2.60;;;16.80;71.00;;;;;;5067072;28;20060;-86
2021/05/11 05:19:26;;;;;;;6.72;2.90;;;16.90;71.50;;;;;;5070808;28;20382;-84
2021/05/11 05:21:52;;;;;;;6.28;2.83;;;16.90;72.40;;;;;;5066910;28;20104;-84
2021/05/11 05:24:26;;;;;;;5.47;2.83;;;17.00;71.40;;;;;;5064911;28;20136;-84
2021/05/11 05:26:54;;;;;;;6.50;2.97;;;17.10;70.60;;;;;;5067124;28;20035;-84
2021/05/11 05:29:20;;;;;;;6.32;3.03;;;17.20;71.80;;;;;;5053239;28;20025;-83
2021/05/11 05:31:45;;;;;;;5.25;2.50;;;17.30;70.10;;;;;;5056381;28;20423;-85
2021/05/11 05:34:11;;;;;;;7.00;2.78;;;17.30;70.30;;;;;;5069781;28;20482;-85
2021/05/11 05:36:37;;;;;;;5.38;3.20;;;17.40;70.20;;;;;;5069354;28;20452;-85
2021/05/11 05:39:03;;;;;;;6.63;2.30;;;17.50;70.80;;;;;;5068276;28;20452;-85
2021/05/11 05:41:30;;;;;;;5.43;2.92;;;17.70;68.20;;;;;;5069853;28;20033;-84
2021/05/11 05:43:58;;;;;;;4.90;2.53;;;17.70;68.60;;;;;;5063101;28;20123;-85
2021/05/11 05:46:24;;;;;;;7.32;2.20;;;17.70;69.80;;;;;;5073367;28;20029;-84
2021/05/11 05:48:49;;;;;;;7.55;2.60;;;17.90;68.40;;;;;;5071239;28;20468;-84
2021/05/11 05:51:15;;;;;;;11.95;3.97;;;18.00;68.70;;;;;;5068684;28;20036;-84
2021/05/11 05:53:43;;;;;;;6.93;2.35;;;18.10;68.30;;;;;;5070855;28;20393;-84
2021/05/11 05:56:12;;;;;;;7.28;2.80;;;18.20;67.70;;;;;;5070979;28;20051;-84
2021/05/11 05:58:37;;;;;;;3.33;2.33;;;18.30;66.70;;;;;;5060457;28;20110;-85
2021/05/11 06:01:09;;;;;;;5.25;2.33;;;18.30;67.00;;;;;;5070219;28;20090;-86
2021/05/11 06:03:38;;;;;;;7.55;2.20;;;18.40;66.80;;;;;;5069795;28;20462;-84
2021/05/11 06:06:07;;;;;;;4.33;1.80;;;18.50;66.90;;;;;;5071688;28;20020;-85
2021/05/11 06:08:33;;;;;;;4.43;2.30;;;18.60;67.20;;;;;;5069976;28;20309;-85
2021/05/11 06:13:54;;;;;;;5.82;2.75;;;18.80;66.50;;;;;;5073619;28;20033;-85
2021/05/11 06:19:04;;;;;;;7.72;2.35;;;18.90;65.30;;;;;;5069851;28;20097;-84
2021/05/11 06:21:30;;;;;;;8.27;2.53;;;19.00;65.40;;;;;;5067579;28;20140;-85
2021/05/11 06:23:55;;;;;;;5.85;2.55;;;19.10;64.80;;;;;;5068102;28;20139;-85
2021/05/11 06:26:21;;;;;;;19.15;2.85;;;19.20;65.90;;;;;;5070286;28;20368;-85
2021/05/11 06:28:47;;;;;;;6.50;2.15;;;19.30;65.60;;;;;;5072650;28;20045;-85
2021/05/11 06:31:13;;;;;;;4.22;2.13;;;19.40;65.00;;;;;;5066896;28;20111;-88
2021/05/11 06:33:38;;;;;;;7.85;2.20;;;19.50;64.00;;;;;;5067591;28;20032;-85
2021/05/11 06:36:05;;;;;;;5.90;2.38;;;19.60;64.10;;;;;;5062134;28;20403;-85
2021/05/11 06:38:31;;;;;;;11.90;2.72;;;19.70;63.70;;;;;;5066821;28;20021;-86
2021/05/11 06:40:57;;;;;;;7.22;2.10;;;19.80;62.50;;;;;;5068354;28;20035;-85
2021/05/11 06:43:28;;;;;;;5.38;2.38;;;19.80;62.70;;;;;;5060153;28;20485;-86
2021/05/11 06:48:23;;;;;;;6.47;2.50;;;20.00;63.80;;;;;;5065031;28;20090;-88
2021/05/11 06:53:48;;;;;;;3.95;2.25;;;20.20;62.50;;;;;;5057995;28;20035;-86
2021/05/11 06:56:14;;;;;;;2.97;1.73;;;20.30;63.00;;;;;;5062268;28;20491;-85
2021/05/11 06:58:40;;;;;;;4.75;1.90;;;20.40;61.40;;;;;;5055386;28;20026;-86
2021/05/11 07:01:06;;;;;;;9.13;2.75;;;20.40;62.20;;;;;;5063918;28;20035;-86
2021/05/11 07:03:32;;;;;;;6.20;2.22;;;20.50;61.60;;;;;;5060759;28;20024;-86
2021/05/11 07:06:00;;;;;;;5.35;1.90;;;20.60;61.50;;;;;;5058221;28;20574;-86
2021/05/11 07:10:57;;;;;;;5.63;1.92;;;20.60;62.00;;;;;;5062738;28;20123;-86
2021/05/11 07:13:22;;;;;;;4.95;2.03;;;20.80;61.90;;;;;;5062196;28;20024;-86
2021/05/11 07:15:49;;;;;;;4.18;2.53;;;20.90;61.40;;;;;;5063670;28;20032;-86
2021/05/11 07:18:21;;;;;;;5.60;2.28;;;21.00;60.40;;;;;;5064055;28;20031;-86
2021/05/11 07:20:48;;;;;;;3.92;1.83;;;21.10;59.90;;;;;;5055726;28;20031;-87
2021/05/11 07:23:21;;;;;;;3.80;2.00;;;21.20;60.60;;;;;;5062513;28;20037;-86
2021/05/11 07:31:11;;;;;;;10.60;2.03;;;21.40;60.50;;;;;;5059027;28;20091;-86
2021/05/11 07:33:42;;;;;;;4.78;2.15;;;21.50;60.40;;;;;;5061797;28;20116;-86
2021/05/11 07:36:08;;;;;;;3.88;1.75;;;21.60;58.90;;;;;;5067625;28;20037;-86
2021/05/11 07:38:34;;;;;;;6.75;2.17;;;21.60;59.10;;;;;;5061960;28;20032;-85
2021/05/11 07:41:00;;;;;;;7.32;2.40;;;21.60;58.60;;;;;;5056607;28;20029;-86
2021/05/11 07:43:27;;;;;;;7.28;2.45;;;21.70;59.20;;;;;;5064907;28;20681;-86
2021/05/11 08:04:46;;;;;;;3.60;1.60;;;22.10;57.80;;;;;;5063613;28;20067;-85
2021/05/11 08:17:46;;;;;;;5.20;2.13;;;22.40;56.50;;;;;;5063727;28;20507;-85
2021/05/11 08:28:11;;;;;;;3.45;1.33;;;22.60;58.10;;;;;;5067123;28;20067;-88
2021/05/11 08:30:36;;;;;;;5.93;2.35;;;22.60;57.30;;;;;;5067349;28;20035;-87
2021/05/11 08:33:02;;;;;;;6.93;1.83;;;22.80;56.70;;;;;;5065443;28;20028;-86
2021/05/11 08:35:28;;;;;;;7.43;1.90;;;22.80;56.30;;;;;;5064151;28;20032;-87
2021/05/11 08:37:53;;;;;;;7.32;2.03;;;23.00;56.30;;;;;;5066570;28;20033;-86
2021/05/11 08:40:20;;;;;;;5.43;1.85;;;23.10;54.90;;;;;;5064534;28;20032;-87
2021/05/11 08:42:46;;;;;;;3.83;1.75;;;23.10;55.90;;;;;;5059548;28;20024;-86
2021/05/11 08:45:14;;;;;;;3.65;1.77;;;23.20;54.50;;;;;;5058351;28;20016;-85
2021/05/11 08:47:50;;;;;;;5.53;1.85;;;23.30;55.20;;;;;;5050550;28;20044;-87
2021/05/11 08:50:23;;;;;;;6.15;2.00;;;23.30;54.50;;;;;;5059777;28;20063;-87
2021/05/11 08:59:54;;;;;;;4.60;2.00;;;23.50;54.60;;;;;;5059204;28;20048;-88
2021/05/11 09:09:56;;;;;;;4.82;1.80;;;23.80;53.80;;;;;;4976318;28;20034;-86
2021/05/11 09:29:30;;;;;;;3.22;1.48;;;24.00;53.40;;;;;;4973680;28;20034;-86
2021/05/11 10:49:32;;;;;;;7.32;1.45;;;25.50;50.50;;;;;;5054338;28;20079;-87
2021/05/11 10:52:43;;;;;;;6.72;1.50;;;25.50;50.50;;;;;;5065439;28;20032;-87
2021/05/11 10:55:19;;;;;;;6.18;1.65;;;25.70;50.90;;;;;;5067140;28;20039;-86
2021/05/11 10:57:53;;;;;;;2.90;1.60;;;25.80;49.40;;;;;;5065658;28;20028;-86
2021/05/11 11:00:23;;;;;;;6.13;1.05;;;25.90;48.00;;;;;;5066546;28;20029;-86
2021/05/11 11:03:15;;;;;;;6.28;1.50;;;25.90;48.60;;;;;;5067278;28;20020;-86
2021/05/11 11:05:43;;;;;;;6.60;1.70;;;25.90;47.80;;;;;;5067431;28;20025;-86
2021/05/11 11:08:27;;;;;;;7.13;1.85;;;25.90;49.40;;;;;;5063946;28;20037;-86
2021/05/11 11:11:07;;;;;;;8.68;1.55;;;25.80;49.10;;;;;;5068877;28;20032;-85
2021/05/11 11:13:33;;;;;;;4.78;1.33;;;25.90;49.60;;;;;;5066216;28;20020;-86
2021/05/11 11:16:00;;;;;;;5.40;1.70;;;25.90;48.70;;;;;;5059902;28;20123;-86
2021/05/11 11:18:25;;;;;;;3.80;1.20;;;26.00;48.10;;;;;;5063817;28;20098;-84
2021/05/11 11:23:53;;;;;;;5.88;1.55;;;26.00;46.90;;;;;;5051053;28;20037;-86
2021/05/11 11:26:51;;;;;;;4.28;1.30;;;26.00;47.90;;;;;;5067676;28;20032;-86
2021/05/11 11:29:16;;;;;;;12.98;1.70;;;25.90;48.00;;;;;;5056037;28;20041;-86
2021/05/11 11:31:44;;;;;;;23.02;4.30;;;26.00;49.30;;;;;;5066782;28;20668;-86
2021/05/11 11:34:25;;;;;;;25.15;2.38;;;26.20;45.40;;;;;;5064219;28;20063;-85
2021/05/11 11:36:58;;;;;;;5.25;1.15;;;26.20;45.90;;;;;;5062874;28;20106;-86
2021/05/11 11:39:32;;;;;;;6.65;1.38;;;26.20;46.40;;;;;;5060489;28;20031;-85
2021/05/11 11:42:07;;;;;;;6.57;1.45;;;26.30;45.60;;;;;;5068050;28;20055;-85
2021/05/11 11:44:38;;;;;;;5.10;1.52;;;26.40;46.90;;;;;;5068378;28;20515;-86
2021/05/11 11:47:08;;;;;;;9.20;1.92;;;26.50;45.50;;;;;;5067324;28;20039;-84
2021/05/11 11:49:37;;;;;;;6.47;1.58;;;26.50;45.20;;;;;;5066068;28;20403;-85
2021/05/11 11:54:49;;;;;;;7.28;1.27;;;26.50;45.10;;;;;;5061371;28;20036;-85
2021/05/11 12:00:05;;;;;;;5.10;1.60;;;26.50;46.20;;;;;;5062166;28;20071;-85
2021/05/11 12:02:31;;;;;;;5.47;1.35;;;26.40;45.10;;;;;;5062628;28;20036;-86
2021/05/11 12:05:11;;;;;;;3.55;1.08;;;26.50;44.70;;;;;;5069280;28;20086;-85
2021/05/11 12:10:22;;;;;;;14.07;1.40;;;26.60;45.10;;;;;;5068030;28;20511;-85
2021/05/11 12:12:47;;;;;;;7.10;1.75;;;26.60;44.80;;;;;;5064721;28;20092;-85
2021/05/11 12:15:19;;;;;;;7.72;1.50;;;26.60;46.00;;;;;;5064510;28;20606;-86
2021/05/11 12:17:47;;;;;;;13.82;1.92;;;26.50;45.30;;;;;;5066520;28;20038;-84
2021/05/11 12:20:26;;;;;;;5.45;1.45;;;26.50;44.80;;;;;;5068397;28;20033;-86
2021/05/11 12:23:24;;;;;;;8.98;1.52;;;26.50;45.90;;;;;;5060995;28;20075;-84
2021/05/11 12:25:56;;;;;;;8.13;1.95;;;26.70;45.30;;;;;;5003892;28;20089;-84
2021/05/11 12:28:37;;;;;;;6.43;1.17;;;26.70;46.30;;;;;;5007186;28;20026;-86
2021/05/11 12:31:08;;;;;;;8.30;1.25;;;26.70;45.30;;;;;;5001907;28;20042;-86
2021/05/11 12:33:42;;;;;;;5.45;1.73;;;26.60;45.80;;;;;;5006252;28;20034;-84
2021/05/11 12:36:18;;;;;;;8.63;1.70;;;26.60;45.20;;;;;;5008005;28;20046;-86
2021/05/11 12:38:44;;;;;;;4.18;1.35;;;26.50;44.30;;;;;;5002688;28;20410;-85
2021/05/11 12:41:31;;;;;;;21.85;2.38;;;26.50;45.20;;;;;;5009341;28;20037;-84
2021/05/11 12:43:57;;;;;;;8.77;1.60;;;26.60;45.60;;;;;;5007592;28;20030;-85
2021/05/11 12:46:25;;;;;;;9.98;1.50;;;26.60;45.00;;;;;;5004478;28;20042;-85
2021/05/11 12:48:53;;;;;;;7.65;1.92;;;26.50;44.80;;;;;;5003110;28;20054;-85
2021/05/11 12:51:37;;;;;;;8.65;1.70;;;26.50;44.80;;;;;;5005425;28;20026;-85
2021/05/11 12:54:24;;;;;;;7.15;1.33;;;26.40;45.50;;;;;;4989877;28;20034;-86
2021/05/11 12:57:40;;;;;;;3.10;1.23;;;26.50;45.50;;;;;;5002443;28;20041;-84
2021/05/11 13:00:10;;;;;;;9.77;1.52;;;26.50;46.50;;;;;;4995177;28;20034;-84
2021/05/11 13:02:53;;;;;;;10.30;1.67;;;26.50;45.70;;;;;;5059828;28;20036;-84
2021/05/11 13:22:25;;;;;;;2.47;0.90;;;26.50;45.10;;;;;;5066021;28;20056;-86
2021/05/11 13:30:22;;;;;;;10.23;1.80;;;26.50;44.40;;;;;;5069408;28;20041;-85
2021/05/11 13:35:14;;;;;;;8.05;1.48;;;26.50;45.60;;;;;;5068222;28;20403;-86
2021/05/11 13:37:40;;;;;;;10.38;1.75;;;26.50;44.60;;;;;;5067647;28;20016;-85
2021/05/11 13:40:07;;;;;;;8.52;1.85;;;26.50;44.90;;;;;;5064095;28;20028;-87
2021/05/11 13:42:33;;;;;;;7.72;1.30;;;26.50;44.50;;;;;;5056126;28;20531;-86
2021/05/11 13:44:58;;;;;;;7.30;1.38;;;26.40;45.10;;;;;;5059914;28;20040;-87
2021/05/11 13:47:24;;;;;;;5.68;0.90;;;26.40;45.30;;;;;;5060183;28;20487;-85
2021/05/11 13:49:57;;;;;;;2.63;1.35;;;26.50;44.60;;;;;;5062196;28;20506;-87
2021/05/11 13:52:23;;;;;;;5.40;1.58;;;26.50;44.40;;;;;;5059831;28;20070;-86
2021/05/11 13:54:54;;;;;;;7.72;1.40;;;26.50;44.40;;;;;;5062740;28;20531;-87
2021/05/11 14:05:30;;;;;;;2.53;1.08;;;26.50;45.20;;;;;;4981913;28;20038;-86
2021/05/11 14:07:56;;;;;;;8.80;1.23;;;26.50;44.80;;;;;;4988832;28;20157;-85
2021/05/11 14:10:22;;;;;;;5.07;1.05;;;26.50;44.50;;;;;;4986594;28;20034;-86
2021/05/11 14:12:48;;;;;;;2.83;0.95;;;26.50;44.50;;;;;;4968060;28;20034;-86
2021/05/11 14:15:14;;;;;;;6.43;1.20;;;26.40;45.40;;;;;;4987069;28;20275;-86
2021/05/11 14:17:40;;;;;;;6.95;1.10;;;26.50;45.90;;;;;;4984600;28;20038;-86
2021/05/11 14:20:07;;;;;;;10.77;1.25;;;26.50;44.50;;;;;;4970277;28;20034;-88
2021/05/11 14:22:32;;;;;;;5.25;1.33;;;26.40;44.40;;;;;;4982016;28;20047;-85
2021/05/11 14:24:58;;;;;;;4.85;1.10;;;26.40;44.80;;;;;;4984674;28;20030;-87
2021/05/11 14:27:24;;;;;;;10.70;1.70;;;26.40;45.10;;;;;;4986643;28;20046;-85
2021/05/11 14:29:50;;;;;;;13.40;1.75;;;26.50;45.80;;;;;;4965732;28;20026;-87
2021/05/11 14:32:18;;;;;;;3.55;1.40;;;26.50;44.20;;;;;;4984884;28;20066;-87
2021/05/11 14:34:44;;;;;;;5.43;1.02;;;26.40;45.00;;;;;;4971533;28;20045;-87
2021/05/11 14:37:10;;;;;;;9.05;1.20;;;26.50;44.80;;;;;;4985010;28;20038;-86
2021/05/11 14:39:36;;;;;;;14.35;1.60;;;26.40;44.50;;;;;;4988336;28;20030;-86
2021/05/11 14:42:01;;;;;;;7.40;1.00;;;26.40;44.20;;;;;;5050612;28;20399;-85
2021/05/11 14:44:27;;;;;;;3.47;1.00;;;26.30;45.40;;;;;;5058517;28;20543;-85
2021/05/11 14:46:55;;;;;;;6.18;1.23;;;26.30;45.20;;;;;;5064564;28;20036;-86
2021/05/11 14:49:21;;;;;;;5.78;1.42;;;26.30;44.10;;;;;;5062014;28;20024;-85
2021/05/11 14:51:47;;;;;;;10.25;0.93;;;26.30;44.60;;;;;;5062524;28;20021;-86
2021/05/11 14:54:13;;;;;;;2.15;0.98;;;26.30;43.90;;;;;;5062205;28;20025;-85
2021/05/11 14:56:41;;;;;;;6.22;1.23;;;26.30;44.00;;;;;;5063789;28;20036;-87
2021/05/11 14:59:07;;;;;;;5.70;1.02;;;26.30;44.50;;;;;;5062058;28;20059;-86
2021/05/11 15:01:33;;;;;;;4.85;1.13;;;26.30;43.80;;;;;;5066654;28;20021;-85
2021/05/11 15:04:00;;;;;;;6.28;1.38;;;26.30;44.10;;;;;;5061624;28;20056;-84
2021/05/11 15:06:26;;;;;;;11.50;1.73;;;26.20;44.30;;;;;;5058297;28;20033;-86
2021/05/11 15:08:52;;;;;;;5.75;1.33;;;26.20;43.70;;;;;;5056866;28;20019;-86
2021/05/11 15:11:18;;;;;;;7.95;0.90;;;26.20;44.20;;;;;;5065928;28;20530;-87
2021/05/11 15:13:45;;;;;;;10.38;1.95;;;26.10;43.50;;;;;;5061775;28;20079;-85
2021/05/11 15:16:13;;;;;;;2.80;0.80;;;26.10;44.10;;;;;;5058285;28;20473;-84
2021/05/11 15:18:39;;;;;;;3.47;1.00;;;26.10;43.80;;;;;;5057637;28;20025;-84
2021/05/11 15:21:05;;;;;;;8.80;0.88;;;26.10;44.70;;;;;;5061974;28;20058;-85
2021/05/11 15:23:30;;;;;;;4.90;1.02;;;26.20;44.30;;;;;;5066466;28;20021;-85
2021/05/11 15:25:56;;;;;;;3.63;0.75;;;26.10;44.20;;;;;;5065424;28;20187;-85
2021/05/11 15:28:22;;;;;;;5.90;1.10;;;26.20;44.90;;;;;;5067240;28;20031;-84
2021/05/11 15:30:47;;;;;;;4.82;1.30;;;26.20;44.20;;;;;;5065506;28;20024;-84
2021/05/11 15:33:13;;;;;;;7.07;1.13;;;26.10;44.00;;;;;;5068776;28;20388;-86
2021/05/11 15:35:39;;;;;;;7.35;1.75;;;26.10;44.50;;;;;;5069603;28;20037;-86
2021/05/11 15:38:06;;;;;;;10.25;1.20;;;26.00;44.30;;;;;;5069130;28;20043;-84
2021/05/11 15:40:41;;;;;;;8.00;1.30;;;26.00;44.90;;;;;;5066458;28;20052;-84
2021/05/11 15:43:08;;;;;;;5.10;0.98;;;25.90;44.70;;;;;;5067593;28;20027;-85
2021/05/11 15:45:35;;;;;;;6.63;0.95;;;25.90;45.40;;;;;;5066593;28;20047;-87
2021/05/11 15:48:02;;;;;;;7.63;1.13;;;25.90;45.20;;;;;;5063393;28;20127;-86
2021/05/11 15:50:37;;;;;;;4.15;0.70;;;25.90;45.30;;;;;;5065606;28;20033;-85
2021/05/11 15:53:05;;;;;;;3.90;1.02;;;25.90;44.80;;;;;;5069453;28;20039;-85
2021/05/11 15:55:33;;;;;;;4.22;0.98;;;25.90;44.90;;;;;;5069453;28;20040;-84
2021/05/11 15:57:59;;;;;;;4.03;1.00;;;25.80;45.50;;;;;;5065617;28;20392;-84
2021/05/11 16:00:25;;;;;;;4.97;0.95;;;25.80;45.10;;;;;;5062633;28;20025;-84
2021/05/11 16:02:51;;;;;;;5.45;1.08;;;25.70;45.60;;;;;;5056534;28;20039;-85
2021/05/11 16:05:18;;;;;;;3.65;0.80;;;25.60;45.80;;;;;;5069238;28;20486;-86
2021/05/11 16:07:44;;;;;;;6.97;1.30;;;25.60;45.00;;;;;;5052828;28;20025;-85
2021/05/11 16:10:10;;;;;;;3.38;0.98;;;25.60;45.50;;;;;;5062127;28;20434;-85
2021/05/11 16:12:37;;;;;;;4.05;0.90;;;25.50;45.90;;;;;;5067017;28;20017;-84
2021/05/11 16:15:14;;;;;;;14.18;1.40;;;25.50;45.80;;;;;;5066824;28;20077;-87
2021/05/11 16:17:41;;;;;;;3.65;0.90;;;25.50;45.50;;;;;;5063645;28;20089;-85
2021/05/11 16:20:09;;;;;;;2.83;1.17;;;25.40;45.70;;;;;;5062469;28;20033;-86
2021/05/11 16:22:35;;;;;;;6.72;1.60;;;25.40;46.30;;;;;;5064458;28;20040;-85
2021/05/11 16:25:01;;;;;;;7.28;1.25;;;25.30;45.60;;;;;;5065638;28;20498;-86
2021/05/11 16:27:27;;;;;;;4.18;0.80;;;25.30;45.60;;;;;;5064295;28;20055;-86
2021/05/11 16:29:53;;;;;;;5.20;1.13;;;25.20;45.40;;;;;;5062528;28;20028;-86
2021/05/11 16:32:19;;;;;;;7.45;1.60;;;25.20;46.70;;;;;;5060759;28;20017;-85
2021/05/11 16:34:45;;;;;;;4.55;0.93;;;25.10;46.00;;;;;;5069298;28;20066;-86
2021/05/11 16:37:11;;;;;;;4.20;1.23;;;25.10;45.60;;;;;;5060796;28;20545;-85
2021/05/11 16:39:38;;;;;;;2.83;1.33;;;25.10;45.70;;;;;;5062182;28;20056;-86
2021/05/11 16:42:04;;;;;;;4.22;1.10;;;25.00;46.40;;;;;;5055427;28;20105;-85
2021/05/11 16:44:30;;;;;;;8.52;1.20;;;25.40;46.90;;;;;;5069606;28;20016;-85
2021/05/11 16:46:56;;;;;;;2.28;1.08;;;25.90;45.20;;;;;;5070683;28;20483;-85
2021/05/11 16:49:22;;;;;;;4.00;1.20;;;26.40;44.30;;;;;;5065554;28;20100;-85
2021/05/11 16:51:48;;;;;;;3.28;1.08;;;26.50;43.90;;;;;;5065206;28;20030;-85
2021/05/11 16:54:14;;;;;;;4.95;0.95;;;26.70;43.20;;;;;;5067771;28;20033;-86
2021/05/11 16:56:40;;;;;;;2.60;1.00;;;26.70;43.40;;;;;;5068112;28;20045;-84
2021/05/11 16:59:05;;;;;;;3.85;1.10;;;26.50;43.50;;;;;;5065532;28;20074;-86
2021/05/11 17:01:32;;;;;;;3.55;0.93;;;26.20;43.80;;;;;;5066251;28;20479;-86
2021/05/11 17:03:58;;;;;;;4.53;1.35;;;25.80;44.10;;;;;;5062531;28;20029;-85
2021/05/11 17:06:23;;;;;;;4.93;0.90;;;25.70;44.30;;;;;;5061335;28;20119;-85
2021/05/11 17:08:49;;;;;;;3.00;1.30;;;25.40;44.30;;;;;;5059567;28;20454;-85
2021/05/11 17:11:15;;;;;;;4.45;1.17;;;25.30;45.40;;;;;;5058236;28;20431;-88
2021/05/11 17:13:41;;;;;;;2.75;0.90;;;25.00;45.10;;;;;;5064727;28;20389;-85
2021/05/11 17:16:08;;;;;;;18.27;1.92;;;24.80;46.00;;;;;;5065590;28;20028;-85
2021/05/11 17:18:35;;;;;;;14.77;2.80;;;24.50;46.10;;;;;;5063421;28;20028;-84
2021/05/11 17:21:02;;;;;;;9.82;1.42;;;24.40;46.50;;;;;;5061662;28;20044;-85
2021/05/11 17:23:27;;;;;;;3.22;1.20;;;24.20;46.60;;;;;;5057548;28;20099;-85
2021/05/11 17:25:54;;;;;;;3.92;1.23;;;24.10;47.40;;;;;;5063745;28;20615;-85